Time;durP1;ratioP1;P1;durP2;ratioP2;P2;SDS_P1;SDS_P2;PMS_P1;PMS_P2;Temp;Humidity;BMP_temperature;BMP_pressure;BME280_temperature;BME280_humidity;BME280_pressure;Samples;Min_cycle;Max_cycle;Signal;HPM_P1;HPM_P2
2022/09/21 00:01:05;;;;;;;4.60;4.30;;;22.90;64.20;;;;;;5075906;28;20436;-79
2022/09/21 00:03:33;;;;;;;4.10;3.80;;;22.90;64.20;;;;;;5075903;28;20417;-79
2022/09/21 00:06:05;;;;;;;4.53;3.97;;;22.90;64.20;;;;;;5067813;28;20493;-79
2022/09/21 00:08:33;;;;;;;4.13;3.70;;;22.80;64.30;;;;;;5074875;28;20450;-79
2022/09/21 00:11:02;;;;;;;4.40;4.00;;;22.80;64.20;;;;;;5075609;28;20440;-79
2022/09/21 00:13:33;;;;;;;3.50;3.30;;;22.80;64.30;;;;;;5076208;28;20437;-80
2022/09/21 00:16:05;;;;;;;4.03;3.73;;;22.80;64.30;;;;;;5075426;28;20465;-79
2022/09/21 00:18:34;;;;;;;3.77;3.37;;;22.80;64.30;;;;;;5075613;28;20425;-79
2022/09/21 00:21:05;;;;;;;3.70;3.40;;;22.80;64.30;;;;;;5075141;28;20430;-80
2022/09/21 00:23:35;;;;;;;4.37;4.07;;;22.80;64.30;;;;;;5067534;28;20912;-80
2022/09/21 00:26:07;;;;;;;3.70;3.30;;;22.80;64.30;;;;;;5074122;28;20473;-80
2022/09/21 00:28:39;;;;;;;3.90;3.60;;;22.80;64.30;;;;;;5056176;28;20515;-80
2022/09/21 00:31:09;;;;;;;4.03;3.63;;;22.80;64.30;;;;;;5055444;28;20427;-80
2022/09/21 00:33:38;;;;;;;4.07;3.67;;;22.80;64.30;;;;;;5072501;28;20929;-78
2022/09/21 00:36:08;;;;;;;4.33;3.67;;;22.80;64.30;;;;;;5074833;28;20441;-79
2022/09/21 00:38:36;;;;;;;4.10;3.80;;;22.80;64.30;;;;;;5075720;28;20437;-80
2022/09/21 00:41:06;;;;;;;3.63;3.33;;;22.80;64.30;;;;;;5074905;28;20949;-79
2022/09/21 00:43:35;;;;;;;3.80;3.50;;;22.80;64.40;;;;;;5076005;28;20437;-79
2022/09/21 00:46:11;;;;;;;3.90;3.57;;;22.80;64.40;;;;;;5074940;28;20860;-79
2022/09/21 00:48:39;;;;;;;3.43;3.23;;;22.80;64.40;;;;;;5055794;28;20421;-79
2022/09/21 00:51:08;;;;;;;3.40;3.20;;;22.70;64.40;;;;;;5072599;28;20452;-80
2022/09/21 00:53:38;;;;;;;3.17;2.97;;;22.80;64.40;;;;;;5070870;28;20781;-78
2022/09/21 00:56:09;;;;;;;3.93;3.63;;;22.80;64.40;;;;;;5073281;28;20822;-80
2022/09/21 00:58:43;;;;;;;3.40;3.10;;;22.70;64.40;;;;;;5055545;28;20802;-79
2022/09/21 01:01:16;;;;;;;3.20;3.00;;;22.70;64.40;;;;;;5055152;28;20445;-79
2022/09/21 01:03:49;;;;;;;2.97;2.77;;;22.70;64.40;;;;;;5055508;28;20511;-79
2022/09/21 01:06:19;;;;;;;3.00;2.80;;;22.70;64.40;;;;;;5065791;28;20476;-80
2022/09/21 01:08:51;;;;;;;3.30;3.10;;;22.70;64.40;;;;;;5074189;28;20464;-79
2022/09/21 01:11:35;;;;;;;3.57;3.37;;;22.70;64.40;;;;;;5069979;28;20525;-78
2022/09/21 01:14:23;;;;;;;3.40;3.20;;;22.70;64.50;;;;;;5034631;28;20435;-79
2022/09/21 01:17:01;;;;;;;3.27;2.97;;;22.70;64.40;;;;;;5034729;28;20427;-79
2022/09/21 01:20:01;;;;;;;3.37;3.17;;;22.70;64.50;;;;;;5033904;28;20448;-79
2022/09/21 01:22:46;;;;;;;3.10;2.90;;;22.70;64.50;;;;;;5035204;28;20433;-79
2022/09/21 01:25:27;;;;;;;3.10;2.90;;;22.70;64.40;;;;;;5034474;28;20476;-79
2022/09/21 01:28:12;;;;;;;3.33;3.13;;;22.70;64.50;;;;;;5034618;28;20442;-79
2022/09/21 01:30:43;;;;;;;3.10;2.90;;;22.70;64.50;;;;;;5030748;28;20454;-79
2022/09/21 01:33:21;;;;;;;3.17;2.97;;;22.70;64.40;;;;;;5035053;28;20460;-79
2022/09/21 01:35:54;;;;;;;2.80;2.60;;;22.70;64.40;;;;;;5033604;28;20439;-80
2022/09/21 01:38:26;;;;;;;3.30;3.10;;;22.70;64.50;;;;;;5034198;28;20439;-79
2022/09/21 01:41:00;;;;;;;2.80;2.60;;;22.70;64.40;;;;;;5034105;28;20434;-79
2022/09/21 01:43:32;;;;;;;3.30;2.73;;;22.70;64.40;;;;;;5034419;28;20424;-79
2022/09/21 01:46:06;;;;;;;2.93;2.73;;;22.60;64.40;;;;;;5033946;28;20467;-77
2022/09/21 01:48:38;;;;;;;3.37;3.17;;;22.60;64.40;;;;;;5033089;28;20550;-80
2022/09/21 01:51:10;;;;;;;3.03;2.83;;;22.60;64.40;;;;;;5022905;28;20780;-80
2022/09/21 01:53:43;;;;;;;3.73;3.33;;;22.60;64.50;;;;;;5023528;28;20451;-79
2022/09/21 01:56:15;;;;;;;3.50;3.20;;;22.60;64.40;;;;;;5016888;28;20993;-79
2022/09/21 01:58:47;;;;;;;3.17;2.97;;;22.60;64.40;;;;;;5018479;28;20462;-78
2022/09/21 02:01:21;;;;;;;2.60;2.40;;;22.60;64.40;;;;;;5033684;28;20463;-79
2022/09/21 02:03:52;;;;;;;2.87;2.67;;;22.60;64.50;;;;;;5032817;28;20435;-80
2022/09/21 02:06:20;;;;;;;2.70;2.50;;;22.60;64.40;;;;;;5030712;28;20490;-80
2022/09/21 02:08:48;;;;;;;2.93;2.73;;;22.60;64.40;;;;;;5028763;28;20459;-78
2022/09/21 02:11:17;;;;;;;2.60;2.40;;;22.60;64.40;;;;;;5028974;28;20446;-80
2022/09/21 02:13:48;;;;;;;2.80;2.70;;;22.60;64.50;;;;;;5067026;28;20470;-79
2022/09/21 02:16:34;;;;;;;2.83;2.63;;;22.60;64.50;;;;;;5053119;28;20458;-79
2022/09/21 02:19:14;;;;;;;2.80;2.70;;;22.50;64.50;;;;;;5052533;28;20427;-80
2022/09/21 02:21:57;;;;;;;2.90;2.70;;;22.50;64.50;;;;;;5052510;28;20447;-80
2022/09/21 02:24:40;;;;;;;3.00;2.80;;;22.50;64.50;;;;;;5051623;28;20451;-80
2022/09/21 02:27:17;;;;;;;2.80;2.60;;;22.50;64.50;;;;;;5055096;28;20473;-80
2022/09/21 02:29:51;;;;;;;2.90;2.70;;;22.50;64.50;;;;;;5072555;28;20435;-80
2022/09/21 02:32:34;;;;;;;2.90;2.70;;;22.50;64.50;;;;;;5055937;28;20450;-79
2022/09/21 02:35:06;;;;;;;2.70;2.50;;;22.50;64.50;;;;;;5067346;28;20453;-79
2022/09/21 02:37:40;;;;;;;2.90;2.70;;;22.50;64.40;;;;;;5071444;28;20426;-79
2022/09/21 02:40:17;;;;;;;3.13;2.93;;;22.50;64.50;;;;;;5072208;28;20440;-79
2022/09/21 02:42:49;;;;;;;2.50;2.40;;;22.50;64.50;;;;;;5065717;28;20438;-79
2022/09/21 02:45:21;;;;;;;2.30;2.20;;;22.50;64.50;;;;;;5069592;28;20457;-80
2022/09/21 02:47:55;;;;;;;2.90;2.63;;;22.50;64.50;;;;;;5071971;28;20460;-79
2022/09/21 02:50:31;;;;;;;2.93;2.73;;;22.50;64.40;;;;;;5071740;28;20512;-80
2022/09/21 02:53:02;;;;;;;2.60;2.40;;;22.50;64.50;;;;;;5071401;28;20445;-79
2022/09/21 02:55:32;;;;;;;3.83;3.53;;;22.50;64.50;;;;;;5071794;28;20537;-79
2022/09/21 02:58:04;;;;;;;2.30;2.20;;;22.50;64.50;;;;;;5071685;28;20455;-80
2022/09/21 03:00:33;;;;;;;2.60;2.40;;;22.50;64.50;;;;;;5072010;28;20943;-80
2022/09/21 03:03:16;;;;;;;2.77;2.57;;;22.50;64.50;;;;;;5070302;28;20475;-80
2022/09/21 03:05:47;;;;;;;2.17;2.07;;;22.50;64.50;;;;;;5071839;28;20556;-80
2022/09/21 03:08:15;;;;;;;2.43;2.33;;;22.50;64.50;;;;;;5068181;28;21021;-80
2022/09/21 03:10:45;;;;;;;2.80;2.70;;;22.40;64.50;;;;;;5053738;28;20454;-77
2022/09/21 03:13:13;;;;;;;2.63;2.43;;;22.50;64.50;;;;;;5053061;28;20573;-77
2022/09/21 03:15:41;;;;;;;2.40;2.20;;;22.40;64.50;;;;;;5071863;28;20470;-79
2022/09/21 03:18:12;;;;;;;2.90;2.70;;;22.40;64.50;;;;;;5070984;28;20499;-79
2022/09/21 03:20:44;;;;;;;2.43;2.23;;;22.40;64.50;;;;;;5057822;28;20926;-79
2022/09/21 03:23:13;;;;;;;3.10;2.50;;;22.40;64.40;;;;;;5070893;28;20429;-79
2022/09/21 03:25:45;;;;;;;2.67;2.47;;;22.40;64.50;;;;;;5056407;28;20450;-79
2022/09/21 03:28:14;;;;;;;2.30;2.20;;;22.40;64.50;;;;;;5051656;28;20447;-79
2022/09/21 03:30:43;;;;;;;2.70;2.50;;;22.40;64.50;;;;;;5051603;28;20437;-79
2022/09/21 03:33:12;;;;;;;2.53;2.33;;;22.40;64.40;;;;;;5051057;28;20750;-79
2022/09/21 03:35:41;;;;;;;2.37;2.17;;;22.40;64.50;;;;;;5066522;28;20776;-79
2022/09/21 03:38:09;;;;;;;2.30;2.20;;;22.40;64.50;;;;;;5053877;28;20461;-79
2022/09/21 03:40:38;;;;;;;2.50;2.30;;;22.40;64.40;;;;;;5051843;28;20438;-80
2022/09/21 03:43:06;;;;;;;2.87;2.67;;;22.40;64.40;;;;;;5069146;28;20441;-79
2022/09/21 03:45:34;;;;;;;2.33;2.13;;;22.40;64.50;;;;;;5071639;28;20440;-80
2022/09/21 03:48:03;;;;;;;2.43;2.33;;;22.40;64.40;;;;;;5071682;28;20472;-79
2022/09/21 03:50:33;;;;;;;2.57;2.47;;;22.40;64.40;;;;;;5071817;28;20441;-79
2022/09/21 03:53:01;;;;;;;2.57;2.37;;;22.40;64.40;;;;;;5052250;28;20462;-79
2022/09/21 03:55:30;;;;;;;2.43;2.33;;;22.40;64.50;;;;;;5055430;28;20445;-79
2022/09/21 03:57:58;;;;;;;2.80;2.60;;;22.40;64.50;;;;;;5054567;28;20445;-79
2022/09/21 04:00:28;;;;;;;2.33;2.13;;;22.40;64.50;;;;;;5061177;28;20463;-79
2022/09/21 04:02:56;;;;;;;2.20;2.10;;;22.40;64.50;;;;;;5062572;28;20457;-80
2022/09/21 04:05:24;;;;;;;2.50;2.30;;;22.40;64.50;;;;;;5069259;28;20422;-79
2022/09/21 04:07:55;;;;;;;2.50;2.30;;;22.40;64.50;;;;;;5071923;28;20469;-79
2022/09/21 04:10:25;;;;;;;2.90;2.60;;;22.30;64.50;;;;;;5061990;28;20458;-79
2022/09/21 04:12:57;;;;;;;2.67;2.47;;;22.30;64.50;;;;;;5051489;28;20505;-79
2022/09/21 04:15:25;;;;;;;2.37;2.17;;;22.30;64.50;;;;;;5053807;28;20480;-78
2022/09/21 04:17:54;;;;;;;2.47;2.37;;;22.30;64.50;;;;;;5069371;28;20457;-79
2022/09/21 04:20:22;;;;;;;3.00;2.80;;;22.30;64.50;;;;;;5069845;28;20441;-79
2022/09/21 04:22:51;;;;;;;2.47;2.27;;;22.30;64.50;;;;;;5068009;28;20460;-78
2022/09/21 04:25:20;;;;;;;2.43;2.23;;;22.30;64.50;;;;;;5070451;28;20452;-79
2022/09/21 04:27:49;;;;;;;2.33;2.23;;;22.30;64.50;;;;;;5069814;28;20476;-79
2022/09/21 04:30:17;;;;;;;2.57;2.37;;;22.30;64.50;;;;;;5067385;28;20455;-82
2022/09/21 04:32:46;;;;;;;2.40;2.20;;;22.30;64.80;;;;;;5068143;28;20450;-79
2022/09/21 04:35:14;;;;;;;2.67;2.47;;;22.30;64.90;;;;;;5071113;28;20460;-81
2022/09/21 04:37:43;;;;;;;2.40;2.27;;;22.30;65.00;;;;;;5068792;28;20537;-81
2022/09/21 04:40:11;;;;;;;2.17;2.07;;;22.30;65.00;;;;;;5072446;28;20916;-79
2022/09/21 04:42:40;;;;;;;1.83;1.73;;;22.30;65.10;;;;;;5065050;28;20436;-81
2022/09/21 04:45:10;;;;;;;2.53;2.43;;;22.40;65.10;;;;;;5065476;28;20946;-77
2022/09/21 04:47:38;;;;;;;3.33;3.13;;;22.40;64.90;;;;;;5069511;28;20467;-81
2022/09/21 04:50:07;;;;;;;3.30;3.10;;;22.30;63.40;;;;;;5066601;28;20452;-82
2022/09/21 04:52:35;;;;;;;3.40;3.10;;;22.30;63.10;;;;;;5068903;28;21005;-83
2022/09/21 04:55:04;;;;;;;3.77;3.00;;;22.20;63.00;;;;;;5072806;28;20468;-79
2022/09/21 04:57:32;;;;;;;2.90;2.70;;;22.20;62.80;;;;;;5052689;28;20472;-82
2022/09/21 05:00:02;;;;;;;2.77;2.53;;;22.20;62.60;;;;;;5069213;28;20473;-82
2022/09/21 05:02:30;;;;;;;3.00;2.80;;;22.20;62.40;;;;;;5064604;28;20494;-80
2022/09/21 05:04:58;;;;;;;3.13;2.67;;;22.10;62.40;;;;;;5067326;28;20552;-81
2022/09/21 05:07:26;;;;;;;3.07;2.70;;;22.10;62.20;;;;;;5066633;28;20476;-83
2022/09/21 05:10:03;;;;;;;3.40;3.03;;;22.10;62.00;;;;;;5072464;28;20462;-82
2022/09/21 05:12:32;;;;;;;3.90;3.10;;;22.10;62.00;;;;;;5071935;28;21036;-81
2022/09/21 05:15:02;;;;;;;2.90;2.53;;;22.00;61.90;;;;;;5071655;28;20812;-81
2022/09/21 05:17:30;;;;;;;2.00;1.90;;;22.00;63.50;;;;;;5068163;28;20452;-82
2022/09/21 05:19:58;;;;;;;2.90;2.70;;;22.00;64.10;;;;;;5072129;28;20522;-79
2022/09/21 05:22:28;;;;;;;2.67;2.47;;;22.10;64.00;;;;;;5065923;28;20460;-83
2022/09/21 05:24:56;;;;;;;3.03;2.83;;;22.10;63.80;;;;;;5071005;28;20786;-82
2022/09/21 05:27:24;;;;;;;3.30;3.00;;;22.10;63.50;;;;;;5072726;28;20852;-82
2022/09/21 05:29:53;;;;;;;3.00;2.70;;;22.10;63.40;;;;;;5070482;28;20460;-83
2022/09/21 05:32:27;;;;;;;2.90;2.70;;;22.10;63.40;;;;;;5070623;28;20444;-82
2022/09/21 05:35:05;;;;;;;3.23;2.93;;;22.10;63.90;;;;;;5064940;28;20449;-83
2022/09/21 05:37:48;;;;;;;4.30;2.33;;;22.10;64.20;;;;;;5073078;28;20945;-82
2022/09/21 05:40:17;;;;;;;7.60;3.60;;;22.10;64.10;;;;;;5059519;28;20803;-83
2022/09/21 05:42:45;;;;;;;4.47;3.00;;;22.20;64.10;;;;;;5070803;28;20502;-82
2022/09/21 05:45:16;;;;;;;2.93;2.73;;;22.20;63.80;;;;;;5067102;28;20863;-82
2022/09/21 05:47:56;;;;;;;3.27;2.87;;;22.20;63.70;;;;;;5065961;28;20479;-79
2022/09/21 05:50:48;;;;;;;6.73;3.57;;;22.20;63.60;;;;;;5071854;28;20796;-82
2022/09/21 05:53:46;;;;;;;3.67;3.27;;;22.20;63.70;;;;;;5069554;28;20487;-82
2022/09/21 05:56:23;;;;;;;3.60;2.77;;;22.20;63.70;;;;;;5062446;28;20457;-76
2022/09/21 05:59:02;;;;;;;7.60;3.00;;;22.20;64.00;;;;;;5069717;28;20448;-80
2022/09/21 06:01:43;;;;;;;4.27;3.00;;;22.20;64.30;;;;;;5074798;28;20920;-78
2022/09/21 06:04:13;;;;;;;7.03;3.47;;;22.20;64.40;;;;;;5068773;28;20932;-74
2022/09/21 06:06:42;;;;;;;3.70;3.30;;;22.30;64.30;;;;;;5069082;28;20521;-78
2022/09/21 06:09:10;;;;;;;2.90;2.70;;;22.30;64.40;;;;;;5047690;28;20470;-76
2022/09/21 06:11:38;;;;;;;3.77;3.43;;;22.40;64.40;;;;;;5070948;28;20444;-77
2022/09/21 06:14:06;;;;;;;3.50;3.07;;;22.40;64.30;;;;;;5068404;28;20813;-77
2022/09/21 06:16:38;;;;;;;3.13;2.93;;;22.40;64.20;;;;;;5070322;28;20781;-76
2022/09/21 06:19:06;;;;;;;3.23;2.87;;;22.40;64.30;;;;;;5067370;28;21216;-78
2022/09/21 06:21:36;;;;;;;3.00;2.80;;;22.50;64.20;;;;;;5061354;28;20715;-76
2022/09/21 06:24:04;;;;;;;9.43;3.83;;;22.50;64.30;;;;;;5061908;28;20454;-79
2022/09/21 06:26:32;;;;;;;3.23;2.73;;;22.50;64.20;;;;;;5072236;28;20451;-81
2022/09/21 06:29:00;;;;;;;4.20;3.80;;;22.50;64.20;;;;;;5052554;28;20469;-79
2022/09/21 06:31:29;;;;;;;3.37;3.17;;;22.60;64.20;;;;;;5068321;28;20443;-79
2022/09/21 06:33:57;;;;;;;3.53;3.00;;;22.60;64.10;;;;;;5065075;28;20446;-78
2022/09/21 06:36:25;;;;;;;5.90;3.60;;;22.60;64.00;;;;;;5074284;28;20626;-78
2022/09/21 06:38:54;;;;;;;3.23;2.93;;;22.60;64.10;;;;;;5071977;28;20868;-77
2022/09/21 06:41:22;;;;;;;3.77;2.70;;;22.60;64.10;;;;;;5073140;28;20458;-78
2022/09/21 06:43:54;;;;;;;3.03;2.83;;;22.60;64.10;;;;;;5073590;28;20449;-78
2022/09/21 06:46:23;;;;;;;3.27;2.97;;;22.60;64.10;;;;;;5073729;28;20445;-78
2022/09/21 06:48:51;;;;;;;2.80;2.60;;;22.70;64.00;;;;;;5072248;28;20477;-78
2022/09/21 06:51:20;;;;;;;3.37;3.17;;;22.70;64.00;;;;;;5073171;28;20530;-79
2022/09/21 06:53:48;;;;;;;2.67;2.47;;;22.70;64.00;;;;;;5070164;28;20464;-78
2022/09/21 06:56:18;;;;;;;3.10;2.90;;;22.70;64.00;;;;;;5064403;28;20443;-79
2022/09/21 06:58:46;;;;;;;3.33;3.03;;;22.70;64.10;;;;;;5067112;28;20456;-77
2022/09/21 07:01:16;;;;;;;3.60;3.30;;;22.70;64.00;;;;;;5067185;28;20450;-77
2022/09/21 07:03:44;;;;;;;3.10;2.90;;;22.80;64.00;;;;;;5073754;28;20459;-80
2022/09/21 07:06:14;;;;;;;3.10;2.90;;;22.80;64.00;;;;;;5072880;28;20442;-79
2022/09/21 07:08:42;;;;;;;2.67;2.57;;;22.80;63.90;;;;;;5072668;28;20479;-81
2022/09/21 07:11:32;;;;;;;3.00;2.80;;;22.80;63.90;;;;;;5073316;28;20936;-78
2022/09/21 07:14:00;;;;;;;3.40;3.20;;;22.80;63.90;;;;;;5062816;28;20451;-80
2022/09/21 07:16:28;;;;;;;3.07;2.70;;;22.80;63.90;;;;;;5054214;28;20442;-83
2022/09/21 07:18:56;;;;;;;2.50;2.30;;;22.80;63.90;;;;;;5074401;28;20498;-79
2022/09/21 07:21:37;;;;;;;3.43;3.13;;;22.80;64.00;;;;;;5069552;28;20446;-80
2022/09/21 07:24:05;;;;;;;3.10;2.90;;;22.90;63.90;;;;;;5070552;28;20447;-79
2022/09/21 07:26:40;;;;;;;3.37;3.07;;;22.90;63.90;;;;;;5071999;28;20912;-76
2022/09/21 07:29:08;;;;;;;3.43;3.20;;;22.90;63.90;;;;;;5066789;28;20466;-79
2022/09/21 07:31:37;;;;;;;3.17;2.90;;;22.90;63.90;;;;;;5076164;28;20444;-79
2022/09/21 07:34:05;;;;;;;2.93;2.73;;;22.90;63.90;;;;;;5064283;28;20438;-77
2022/09/21 07:36:33;;;;;;;3.13;2.93;;;22.90;63.90;;;;;;5072281;28;20459;-77
2022/09/21 07:39:01;;;;;;;3.70;3.40;;;22.90;63.90;;;;;;5068147;28;20443;-79
2022/09/21 07:41:30;;;;;;;2.80;2.50;;;22.90;63.90;;;;;;5063207;28;20454;-80
2022/09/21 07:43:59;;;;;;;2.77;2.57;;;22.90;63.90;;;;;;5072925;28;20454;-81
2022/09/21 07:46:27;;;;;;;2.80;2.60;;;23.00;63.90;;;;;;5065693;28;20532;-80
2022/09/21 07:48:56;;;;;;;5.60;2.53;;;23.00;63.90;;;;;;5071645;28;20933;-78
2022/09/21 07:51:25;;;;;;;2.90;2.60;;;23.00;63.90;;;;;;5073565;28;20450;-79
2022/09/21 07:53:55;;;;;;;2.43;2.30;;;23.00;63.90;;;;;;5068440;28;20464;-81
2022/09/21 07:56:23;;;;;;;2.83;2.63;;;23.00;63.90;;;;;;5068796;28;20460;-81
2022/09/21 07:59:05;;;;;;;2.80;2.60;;;23.00;63.90;;;;;;5071291;28;20545;-80
2022/09/21 08:01:36;;;;;;;2.57;2.30;;;23.00;63.90;;;;;;5069974;28;20449;-81
2022/09/21 08:04:06;;;;;;;2.40;2.30;;;23.00;63.90;;;;;;5071882;28;20440;-77
2022/09/21 08:06:38;;;;;;;10.60;3.00;;;23.00;63.90;;;;;;5073924;28;20949;-78
2022/09/21 08:09:08;;;;;;;2.70;2.50;;;23.10;64.00;;;;;;5074940;28;20511;-80
2022/09/21 08:11:37;;;;;;;3.63;3.00;;;23.10;64.00;;;;;;5078182;28;20464;-78
2022/09/21 08:14:06;;;;;;;2.70;2.43;;;23.10;64.00;;;;;;5066854;28;20441;-79
2022/09/21 08:16:38;;;;;;;2.90;2.50;;;23.10;63.90;;;;;;5073223;28;20451;-76
2022/09/21 08:19:06;;;;;;;2.00;1.87;;;23.10;63.90;;;;;;5064526;28;20433;-71
2022/09/21 08:21:35;;;;;;;2.70;2.50;;;23.10;63.90;;;;;;5069359;28;20446;-70
2022/09/21 08:24:03;;;;;;;2.90;2.67;;;23.10;64.00;;;;;;5068445;28;20476;-71
2022/09/21 08:26:32;;;;;;;2.47;2.37;;;23.10;64.10;;;;;;5069776;28;20553;-70
2022/09/21 08:29:00;;;;;;;2.40;2.20;;;23.10;64.30;;;;;;5069981;28;20472;-69
2022/09/21 08:31:29;;;;;;;2.73;2.53;;;23.20;64.30;;;;;;5068818;28;20784;-69
2022/09/21 08:33:59;;;;;;;2.20;2.10;;;23.20;64.40;;;;;;5074171;28;20500;-69
2022/09/21 08:36:27;;;;;;;3.00;2.57;;;23.20;64.40;;;;;;5070775;28;20465;-71
2022/09/21 08:38:56;;;;;;;3.23;3.00;;;23.20;64.40;;;;;;5073659;28;20442;-71
2022/09/21 08:41:32;;;;;;;2.93;2.63;;;23.20;64.40;;;;;;5068191;28;20452;-69
2022/09/21 08:44:05;;;;;;;2.70;2.50;;;23.20;64.40;;;;;;5070682;28;20452;-70
2022/09/21 08:46:36;;;;;;;4.47;2.20;;;23.30;64.40;;;;;;5065145;28;20478;-70
2022/09/21 08:49:11;;;;;;;3.10;2.80;;;23.30;64.40;;;;;;5066627;28;20546;-70
2022/09/21 08:51:49;;;;;;;2.60;2.40;;;23.30;64.40;;;;;;5070527;28;20460;-70
2022/09/21 08:54:25;;;;;;;3.33;2.40;;;23.30;64.30;;;;;;5069957;28;20532;-72
2022/09/21 08:56:53;;;;;;;2.43;2.30;;;23.30;64.40;;;;;;5071928;28;20451;-69
2022/09/21 08:59:32;;;;;;;5.60;2.43;;;23.30;64.30;;;;;;5071312;28;20924;-69
2022/09/21 09:02:13;;;;;;;2.50;2.30;;;23.30;64.20;;;;;;5066266;28;20463;-69
2022/09/21 09:04:53;;;;;;;2.20;2.00;;;23.30;64.20;;;;;;5063203;28;20477;-69
2022/09/21 09:07:43;;;;;;;2.33;2.23;;;23.30;64.20;;;;;;5072024;28;20454;-71
2022/09/21 09:10:30;;;;;;;2.67;2.50;;;23.30;64.20;;;;;;5054039;28;20480;-70
2022/09/21 09:13:19;;;;;;;2.20;2.10;;;23.40;64.10;;;;;;5068554;28;20477;-70
2022/09/21 09:15:56;;;;;;;2.63;2.43;;;23.40;64.10;;;;;;5066110;28;20484;-70
2022/09/21 09:18:33;;;;;;;1.90;1.80;;;23.40;64.10;;;;;;5072008;28;20440;-71
2022/09/21 09:21:09;;;;;;;2.67;2.47;;;23.40;64.10;;;;;;5073426;28;20528;-70
2022/09/21 09:23:43;;;;;;;2.40;2.20;;;23.40;64.10;;;;;;5078173;28;20497;-70
2022/09/21 09:26:18;;;;;;;2.30;2.20;;;23.30;64.10;;;;;;5072659;28;20446;-70
2022/09/21 09:28:51;;;;;;;2.50;2.30;;;23.30;64.10;;;;;;5073451;28;20453;-70
2022/09/21 09:31:24;;;;;;;2.30;2.20;;;23.30;64.10;;;;;;5065621;28;20480;-70
2022/09/21 09:33:59;;;;;;;2.20;2.00;;;23.30;64.10;;;;;;5069099;28;20457;-69
2022/09/21 09:36:32;;;;;;;3.00;2.80;;;23.30;64.10;;;;;;5064970;28;20469;-70
2022/09/21 09:39:21;;;;;;;1.90;1.80;;;23.30;64.10;;;;;;5066893;28;20457;-70
2022/09/21 09:42:18;;;;;;;3.07;2.33;;;23.30;64.10;;;;;;5074427;28;20441;-71
2022/09/21 09:45:00;;;;;;;2.00;1.90;;;23.30;64.10;;;;;;5068720;28;20473;-71
2022/09/21 09:47:39;;;;;;;2.20;2.10;;;23.30;64.10;;;;;;5069418;28;20469;-70
2022/09/21 09:50:13;;;;;;;2.20;2.10;;;23.40;64.10;;;;;;5074171;28;20476;-69
2022/09/21 09:52:44;;;;;;;1.80;1.70;;;23.40;64.10;;;;;;5072638;28;20456;-70
2022/09/21 09:55:19;;;;;;;2.30;1.87;;;23.40;64.10;;;;;;5066235;28;20450;-69
2022/09/21 09:57:48;;;;;;;2.00;1.90;;;23.40;64.10;;;;;;5072797;28;20433;-70
2022/09/21 10:00:19;;;;;;;1.43;1.33;;;23.40;64.00;;;;;;5064415;28;20936;-71
2022/09/21 10:02:50;;;;;;;2.40;2.30;;;23.40;64.00;;;;;;5069409;28;20465;-75
2022/09/21 10:05:24;;;;;;;2.07;1.97;;;23.50;63.90;;;;;;5069714;28;20449;-79
2022/09/21 10:07:54;;;;;;;1.87;1.77;;;23.50;63.80;;;;;;5071785;28;20446;-74
2022/09/21 10:10:32;;;;;;;1.93;1.83;;;23.50;63.70;;;;;;5062451;28;20481;-75
2022/09/21 10:13:19;;;;;;;2.00;1.80;;;23.50;63.70;;;;;;5066549;28;20490;-75
2022/09/21 10:15:51;;;;;;;1.90;1.80;;;23.50;63.60;;;;;;5069406;28;20482;-75
2022/09/21 10:18:22;;;;;;;2.07;1.97;;;23.50;63.40;;;;;;5070405;28;20856;-75
2022/09/21 10:20:56;;;;;;;2.00;1.90;;;23.60;63.30;;;;;;5058189;28;21120;-75
2022/09/21 10:23:28;;;;;;;1.90;1.80;;;23.60;63.20;;;;;;5068817;28;20457;-75
2022/09/21 10:26:02;;;;;;;2.17;2.07;;;23.60;63.10;;;;;;5059721;28;20454;-75
2022/09/21 10:28:31;;;;;;;2.53;2.30;;;23.70;62.90;;;;;;5070051;28;20850;-75
2022/09/21 10:31:21;;;;;;;2.17;2.07;;;23.80;62.80;;;;;;5070634;28;21090;-75
2022/09/21 10:33:52;;;;;;;3.20;2.20;;;23.90;62.70;;;;;;5068588;28;20472;-75
2022/09/21 10:36:32;;;;;;;3.93;1.90;;;24.00;62.40;;;;;;5069474;28;20458;-75
2022/09/21 10:39:20;;;;;;;4.07;2.17;;;24.10;62.20;;;;;;5066981;28;20465;-74
2022/09/21 10:41:56;;;;;;;2.43;1.90;;;24.30;61.90;;;;;;5070456;28;20462;-75
2022/09/21 10:44:29;;;;;;;2.07;1.97;;;24.40;61.50;;;;;;5068719;28;20529;-75
2022/09/21 10:46:59;;;;;;;3.37;1.90;;;24.70;61.10;;;;;;5067483;28;20456;-75
2022/09/21 10:49:29;;;;;;;2.87;1.73;;;24.80;60.60;;;;;;5060717;28;20470;-75
2022/09/21 10:51:58;;;;;;;2.10;1.90;;;25.00;60.40;;;;;;5052505;28;20482;-76
2022/09/21 10:54:31;;;;;;;1.70;1.60;;;25.00;60.20;;;;;;5066156;28;20438;-75
2022/09/21 10:57:02;;;;;;;1.97;1.87;;;25.30;59.90;;;;;;5072904;28;20449;-76
2022/09/21 10:59:32;;;;;;;2.57;2.33;;;25.50;59.40;;;;;;5072019;28;20451;-74
2022/09/21 11:02:02;;;;;;;2.40;2.30;;;25.70;58.70;;;;;;5072243;28;20453;-74
2022/09/21 11:04:36;;;;;;;2.30;1.70;;;25.70;58.90;;;;;;5049453;28;20463;-74
2022/09/21 11:07:24;;;;;;;2.03;1.87;;;25.50;59.20;;;;;;5068233;28;20451;-72
2022/09/21 11:10:03;;;;;;;1.90;1.80;;;25.30;59.60;;;;;;5066795;28;20450;-70
2022/09/21 11:12:43;;;;;;;2.20;2.00;;;25.10;59.90;;;;;;5066397;28;20494;-72
2022/09/21 11:15:40;;;;;;;2.93;1.90;;;25.00;60.20;;;;;;5063819;28;20469;-73
2022/09/21 11:18:16;;;;;;;4.90;2.77;;;24.90;60.50;;;;;;5067684;28;20452;-72
2022/09/21 11:20:49;;;;;;;2.50;2.30;;;25.10;60.60;;;;;;5067791;28;20854;-73
2022/09/21 11:23:28;;;;;;;8.40;2.93;;;25.50;59.90;;;;;;5069657;28;20463;-74
2022/09/21 11:26:04;;;;;;;2.43;2.23;;;25.70;59.10;;;;;;5070688;28;20445;-73
2022/09/21 11:28:39;;;;;;;2.73;2.53;;;26.00;58.80;;;;;;5070235;28;20444;-73
2022/09/21 11:31:27;;;;;;;3.97;2.70;;;26.30;58.20;;;;;;5067210;28;20488;-73
2022/09/21 11:34:40;;;;;;;4.40;2.50;;;26.30;57.90;;;;;;5069013;28;20439;-74
2022/09/21 11:37:20;;;;;;;2.83;2.60;;;26.00;58.30;;;;;;4966457;28;21087;-72
2022/09/21 11:40:02;;;;;;;2.10;2.00;;;26.00;58.50;;;;;;4966489;28;20459;-73
2022/09/21 11:42:51;;;;;;;2.20;2.00;;;25.90;58.40;;;;;;5040218;28;20479;-73
2022/09/21 11:45:32;;;;;;;2.93;2.73;;;25.80;58.80;;;;;;5063635;28;20923;-73
2022/09/21 11:48:11;;;;;;;2.57;2.40;;;25.70;59.10;;;;;;5038546;28;20605;-68
2022/09/21 11:50:53;;;;;;;2.50;2.30;;;26.00;58.90;;;;;;5063301;28;20502;-68
2022/09/21 11:53:31;;;;;;;2.63;2.40;;;26.30;58.50;;;;;;5062356;28;20447;-68
2022/09/21 11:56:20;;;;;;;2.90;2.23;;;26.60;58.00;;;;;;5066146;28;20455;-69
2022/09/21 11:59:05;;;;;;;3.23;2.43;;;26.80;57.70;;;;;;5069669;28;21001;-69
2022/09/21 12:01:48;;;;;;;1.97;1.87;;;27.00;57.40;;;;;;5069416;28;20457;-68
2022/09/21 12:04:33;;;;;;;2.30;2.20;;;27.20;57.00;;;;;;5068612;28;20448;-68
2022/09/21 12:07:14;;;;;;;3.30;2.33;;;27.30;56.80;;;;;;5067777;28;20935;-69
2022/09/21 12:10:13;;;;;;;3.00;1.90;;;27.40;56.50;;;;;;5068564;28;20870;-70
2022/09/21 12:12:48;;;;;;;2.27;2.17;;;27.30;56.90;;;;;;5053672;28;20973;-70
2022/09/21 12:15:24;;;;;;;2.47;2.27;;;27.30;56.80;;;;;;5070898;28;20476;-69
2022/09/21 12:17:59;;;;;;;1.90;1.80;;;27.20;57.00;;;;;;5071890;28;20436;-70
2022/09/21 12:20:37;;;;;;;2.63;1.60;;;27.20;57.00;;;;;;5064789;28;20458;-69
2022/09/21 12:23:11;;;;;;;1.80;1.70;;;27.20;57.10;;;;;;5064044;28;20915;-69
2022/09/21 12:25:44;;;;;;;5.10;2.20;;;27.30;57.00;;;;;;5066360;28;20454;-69
2022/09/21 12:28:24;;;;;;;1.93;1.83;;;27.50;56.80;;;;;;5062332;28;20491;-69
2022/09/21 12:30:59;;;;;;;2.17;2.07;;;27.60;56.60;;;;;;5068023;28;20926;-70
2022/09/21 12:33:35;;;;;;;2.30;2.10;;;27.70;56.40;;;;;;5060718;28;20506;-70
2022/09/21 12:36:10;;;;;;;4.87;1.83;;;27.90;56.10;;;;;;5071486;28;20961;-71
2022/09/21 12:38:43;;;;;;;3.83;2.10;;;28.00;55.90;;;;;;5068706;28;20458;-72
2022/09/21 12:41:17;;;;;;;2.57;2.37;;;28.00;55.80;;;;;;5071955;28;20433;-71
2022/09/21 12:43:51;;;;;;;3.00;2.37;;;27.90;55.70;;;;;;5068320;28;20440;-74
2022/09/21 12:46:25;;;;;;;4.83;2.17;;;27.90;55.90;;;;;;5061964;28;20443;-73
2022/09/21 12:48:54;;;;;;;2.10;1.90;;;27.80;55.90;;;;;;5064880;28;20448;-71
2022/09/21 12:51:29;;;;;;;1.90;1.80;;;27.80;56.10;;;;;;5061728;28;20476;-72
2022/09/21 12:54:00;;;;;;;2.30;2.10;;;27.80;56.10;;;;;;5072671;28;20448;-73
2022/09/21 12:56:36;;;;;;;1.83;1.73;;;27.80;56.10;;;;;;5054583;28;20457;-73
2022/09/21 12:59:18;;;;;;;2.53;2.30;;;27.80;56.10;;;;;;5073863;28;20452;-72
2022/09/21 13:01:52;;;;;;;2.53;2.33;;;27.80;56.00;;;;;;5075952;28;20444;-74
2022/09/21 13:04:45;;;;;;;1.93;1.83;;;27.70;56.10;;;;;;5074303;28;20452;-71
2022/09/21 13:08:00;;;;;;;2.37;1.67;;;27.70;56.20;;;;;;5074336;28;20448;-72
2022/09/21 13:10:39;;;;;;;1.53;1.43;;;27.60;56.30;;;;;;5071215;28;20979;-73
2022/09/21 13:13:23;;;;;;;1.73;1.63;;;27.30;56.80;;;;;;5073878;28;20607;-68
2022/09/21 13:15:52;;;;;;;2.07;1.87;;;27.20;57.10;;;;;;5071810;28;20493;-69
2022/09/21 13:18:27;;;;;;;2.80;1.83;;;27.20;57.30;;;;;;5073032;28;20448;-69
2022/09/21 13:21:00;;;;;;;1.73;1.60;;;27.20;57.40;;;;;;5070784;28;20483;-69